CheckWX is a tool to help pilots better visualize weather data.  It is not intended as a substitute for an official pre-flight weather briefing.

20:10:55 UTC

KLXL METAR
Little Falls / Morrison County-Lindbergh Field Airport
Little Falls, Minnesota, USA
Current

15 mins ago

KLXL 261956Z AUTO 23008KT 10SM CLR 27/13 A3000 RMK AO2
Observed
Jun-26 @ 19:56 UTC
Wind
  • 230° at 8 KTS
Visibility
10 SM
Flight Rules
VFR
Cloud Levels
  • Clear skies
Temperature
27°C / 81°F
Dewpoint
13°C / 55°F
Heat Index
27°C / 81°F
Humidity
42%
Altimeter
30" Hg
Pressure
1015.92 hPa
Previous

36 mins ago

KLXL 261935Z AUTO 24006KT 10SM CLR 27/13 A3000 RMK AO2
Observed
Jun-26 @ 19:35 UTC
Wind
  • 240° at 6 KTS
Visibility
10 SM
Flight Rules
VFR
Cloud Levels
  • Clear skies
Temperature
27°C / 81°F
Dewpoint
13°C / 55°F
Heat Index
27°C / 81°F
Humidity
42%
Altimeter
30" Hg
Pressure
1015.92 hPa
Previous

1 hour ago

KLXL 261855Z AUTO 25004KT 10SM CLR 26/12 A3000 RMK AO2
Observed
Jun-26 @ 18:55 UTC
Wind
  • 250° at 4 KTS
Visibility
10 SM
Flight Rules
VFR
Cloud Levels
  • Clear skies
Temperature
26°C / 79°F
Dewpoint
12°C / 54°F
Humidity
42%
Altimeter
30" Hg
Pressure
1015.92 hPa